createdAt,value
2023-01-03T00:01:23.537Z,99039.00
2023-01-03T00:03:56.949Z,99047.00
2023-01-03T00:06:30.392Z,99055.00
2023-01-03T00:09:01.567Z,99044.00
2023-01-03T00:11:45.360Z,99047.00
2023-01-03T00:14:17.550Z,99055.00
2023-01-03T00:16:48.720Z,99062.00
2023-01-03T00:19:21.517Z,99062.00
2023-01-03T00:21:51.833Z,99065.00
2023-01-03T00:24:22.257Z,99068.00
2023-01-03T00:26:52.334Z,99063.00
2023-01-03T00:29:22.592Z,99080.00
2023-01-03T00:31:53.099Z,99073.00
2023-01-03T00:34:25.842Z,99073.00
2023-01-03T00:36:55.831Z,99066.00
2023-01-03T00:39:25.933Z,99073.00
2023-01-03T00:41:56.387Z,99085.00
2023-01-03T00:44:26.614Z,99098.00
2023-01-03T00:46:56.607Z,99099.00
2023-01-03T00:49:29.231Z,99104.00
2023-01-03T00:51:59.285Z,99111.00
2023-01-03T00:54:29.307Z,99132.00
2023-01-03T00:56:59.313Z,99123.00
2023-01-03T00:59:29.423Z,99124.00
2023-01-03T01:02:00.361Z,99136.00
2023-01-03T01:04:34.983Z,99139.00
2023-01-03T01:07:07.177Z,99137.00
2023-01-03T01:09:39.111Z,99135.00
2023-01-03T01:12:09.945Z,99137.00
2023-01-03T01:14:40.008Z,99141.00
2023-01-03T01:17:11.406Z,99159.00
2023-01-03T01:19:46.406Z,99169.00
2023-01-03T01:22:16.445Z,99160.00
2023-01-03T01:24:46.585Z,99160.00
2023-01-03T01:27:16.581Z,99170.00
2023-01-03T01:29:46.605Z,99170.00
2023-01-03T01:32:16.658Z,99154.00
2023-01-03T01:34:49.297Z,99151.00
2023-01-03T01:37:19.319Z,99167.00
2023-01-03T01:39:49.384Z,99156.00
2023-01-03T01:42:43.590Z,99172.00
2023-01-03T01:45:16.864Z,99174.00
2023-01-03T01:47:53.119Z,99169.00
2023-01-03T01:50:28.879Z,99163.00
2023-01-03T01:53:00.569Z,99171.00
2023-01-03T01:55:34.692Z,99187.00
2023-01-03T01:58:05.110Z,99180.00
2023-01-03T02:00:35.872Z,99186.00
2023-01-03T02:03:06.322Z,99181.00
2023-01-03T02:05:41.073Z,99197.00
2023-01-03T02:08:11.139Z,99191.00
2023-01-03T02:10:52.793Z,99206.00
2023-01-03T02:13:39.618Z,99206.00
2023-01-03T02:16:30.923Z,99210.00
2023-01-03T02:19:09.574Z,99206.00
2023-01-03T02:22:13.027Z,99207.00
2023-01-03T02:25:15.571Z,99222.00
2023-01-03T02:28:13.525Z,99231.00
2023-01-03T02:30:49.705Z,99250.00
2023-01-03T02:33:26.572Z,99257.00
2023-01-03T02:36:03.686Z,99249.00
2023-01-03T02:38:42.231Z,99243.00
2023-01-03T02:41:18.353Z,99253.00
2023-01-03T02:43:55.283Z,99250.00
2023-01-03T02:46:30.689Z,99261.00
2023-01-03T02:49:04.128Z,99275.00
2023-01-03T02:51:36.957Z,99278.00
2023-01-03T02:54:09.216Z,99276.00
2023-01-03T02:56:41.906Z,99268.00
2023-01-03T02:59:14.923Z,99259.00
2023-01-03T03:01:51.059Z,99262.00
2023-01-03T03:04:22.583Z,99283.00
2023-01-03T03:06:59.698Z,99273.00
2023-01-03T03:09:29.773Z,99274.00
2023-01-03T03:12:13.546Z,99264.00
2023-01-03T03:14:47.181Z,99278.00
2023-01-03T03:17:23.660Z,99268.00
2023-01-03T03:20:07.779Z,99272.00
2023-01-03T03:22:55.213Z,99280.00
2023-01-03T03:25:27.745Z,99279.00
2023-01-03T03:28:12.955Z,99257.00
2023-01-03T03:30:42.695Z,99261.00
2023-01-03T03:33:16.587Z,99265.00
2023-01-03T03:35:49.765Z,99265.00
2023-01-03T03:38:24.252Z,99267.00
2023-01-03T03:41:13.907Z,99269.00
2023-01-03T03:44:01.548Z,99259.00
2023-01-03T03:46:35.970Z,99257.00
2023-01-03T03:49:23.077Z,99280.00
2023-01-03T03:51:53.423Z,99284.00
2023-01-03T03:54:25.310Z,99289.00
2023-01-03T03:56:58.442Z,110395.00
2023-01-03T03:59:30.667Z,99290.00
2023-01-03T04:02:01.979Z,99280.00
2023-01-03T04:04:37.795Z,99284.00
2023-01-03T04:07:08.171Z,99286.00
2023-01-03T04:09:38.188Z,99289.00
2023-01-03T04:12:08.750Z,99295.00
2023-01-03T04:14:38.698Z,99292.00
2023-01-03T04:17:08.734Z,99289.00
2023-01-03T04:19:41.380Z,99291.00
2023-01-03T04:22:11.386Z,99315.00
2023-01-03T04:24:41.394Z,99319.00
2023-01-03T04:27:11.405Z,99324.00
2023-01-03T04:29:41.400Z,99322.00
2023-01-03T04:32:11.549Z,99330.00
2023-01-03T04:34:45.417Z,99330.00
2023-01-03T04:37:15.467Z,99348.00
2023-01-03T04:39:45.475Z,99347.00
2023-01-03T04:42:27.621Z,99353.00
2023-01-03T04:44:57.629Z,99354.00
2023-01-03T04:47:28.331Z,99360.00
2023-01-03T04:50:01.026Z,99357.00
2023-01-03T04:52:31.960Z,99362.00
2023-01-03T04:55:01.967Z,99366.00
2023-01-03T04:57:32.045Z,99368.00
2023-01-03T05:00:02.103Z,99376.00
2023-01-03T05:02:32.239Z,99370.00
2023-01-03T05:05:05.012Z,99382.00
2023-01-03T05:07:35.074Z,99381.00
2023-01-03T05:10:05.426Z,99377.00
2023-01-03T05:12:35.550Z,99383.00
2023-01-03T05:15:05.556Z,99376.00
2023-01-03T05:17:35.590Z,99388.00
2023-01-03T05:20:21.855Z,99386.00
2023-01-03T05:23:04.494Z,99384.00
2023-01-03T05:25:46.708Z,99384.00
2023-01-03T05:28:17.660Z,99383.00
2023-01-03T05:30:47.873Z,99386.00
2023-01-03T05:33:17.853Z,99388.00
2023-01-03T05:35:51.400Z,99385.00
2023-01-03T05:38:21.506Z,99395.00
2023-01-03T05:40:51.535Z,99408.00
2023-01-03T05:43:21.535Z,99403.00
2023-01-03T05:45:53.342Z,99409.00
2023-01-03T05:48:24.128Z,99409.00
2023-01-03T05:50:59.591Z,99406.00
2023-01-03T05:53:29.835Z,99407.00
2023-01-03T05:55:59.878Z,99402.00
2023-01-03T05:58:29.838Z,99415.00
2023-01-03T06:00:59.815Z,99410.00
2023-01-03T06:03:30.205Z,99403.00
2023-01-03T06:06:09.889Z,99412.00
2023-01-03T06:08:39.983Z,99423.00
2023-01-03T06:11:10.527Z,99423.00
2023-01-03T06:13:40.883Z,99421.00
2023-01-03T06:16:25.252Z,99438.00
2023-01-03T06:18:55.559Z,99442.00
2023-01-03T06:21:28.237Z,99443.00
2023-01-03T06:23:58.350Z,99445.00
2023-01-03T06:26:29.868Z,99452.00
2023-01-03T06:28:59.887Z,99457.00
2023-01-03T06:31:30.129Z,99457.00
2023-01-03T06:34:00.388Z,99467.00
2023-01-03T06:36:34.705Z,99461.00
2023-01-03T06:39:04.808Z,99465.00
2023-01-03T06:41:34.783Z,99463.00
2023-01-03T06:44:04.887Z,99470.00
2023-01-03T06:46:47.391Z,99468.00
2023-01-03T06:49:31.584Z,99470.00
2023-01-03T06:52:17.448Z,99475.00
2023-01-03T06:54:47.522Z,99484.00
2023-01-03T06:57:26.451Z,99491.00
2023-01-03T06:59:57.426Z,99487.00
2023-01-03T07:02:27.626Z,99492.00
2023-01-03T07:04:58.165Z,99490.00
2023-01-03T07:07:30.816Z,99488.00
2023-01-03T07:10:00.737Z,99491.00
2023-01-03T07:12:43.058Z,99495.00
2023-01-03T07:15:14.308Z,99491.00
2023-01-03T07:17:44.225Z,99494.00
2023-01-03T07:20:14.258Z,99498.00
2023-01-03T07:22:46.814Z,99496.00
2023-01-03T07:25:16.985Z,99501.00
2023-01-03T07:27:46.954Z,99506.00
2023-01-03T07:30:17.520Z,99503.00
2023-01-03T07:32:47.652Z,99506.00
2023-01-03T07:35:17.629Z,99515.00
2023-01-03T07:37:50.285Z,99509.00
2023-01-03T07:40:20.547Z,99516.00
2023-01-03T07:43:02.926Z,99515.00
2023-01-03T07:45:32.979Z,99516.00
2023-01-03T07:48:02.996Z,99528.00
2023-01-03T07:50:32.965Z,99521.00
2023-01-03T07:53:06.134Z,99522.00
2023-01-03T07:55:36.254Z,99532.00
2023-01-03T07:58:06.421Z,99531.00
2023-01-03T08:00:36.504Z,99535.00
2023-01-03T08:03:10.749Z,99542.00
2023-01-03T08:05:41.941Z,99542.00
2023-01-03T08:08:14.622Z,99542.00
2023-01-03T08:10:56.872Z,99550.00
2023-01-03T08:13:26.952Z,99546.00
2023-01-03T08:15:58.199Z,99548.00
2023-01-03T08:18:29.824Z,99542.00
2023-01-03T08:20:59.894Z,99546.00
2023-01-03T08:23:32.984Z,99536.00
2023-01-03T08:26:04.461Z,99539.00
2023-01-03T08:28:34.818Z,99543.00
2023-01-03T08:31:11.532Z,99546.00
2023-01-03T08:33:45.303Z,99549.00
2023-01-03T08:36:16.139Z,99555.00
2023-01-03T08:38:50.262Z,99550.00
2023-01-03T08:41:23.739Z,99550.00
2023-01-03T08:43:54.504Z,99569.00
2023-01-03T08:46:25.572Z,99573.00
2023-01-03T08:48:55.634Z,99571.00
2023-01-03T08:51:26.837Z,99575.00
2023-01-03T08:53:59.499Z,99585.00
2023-01-03T08:56:29.516Z,99584.00
2023-01-03T08:58:59.710Z,99579.00
2023-01-03T09:01:30.097Z,99588.00
2023-01-03T09:04:00.421Z,99594.00
2023-01-03T09:06:31.103Z,99596.00
2023-01-03T09:09:07.336Z,99601.00
2023-01-03T09:11:37.443Z,99599.00
2023-01-03T09:14:07.581Z,99601.00
2023-01-03T09:16:37.639Z,99608.00
2023-01-03T09:19:07.719Z,99606.00
2023-01-03T09:21:37.762Z,99602.00
2023-01-03T09:24:11.447Z,99603.00
2023-01-03T09:26:41.473Z,99601.00
2023-01-03T09:29:11.473Z,99607.00
2023-01-03T09:31:41.456Z,99618.00
2023-01-03T09:34:11.551Z,99610.00
2023-01-03T09:36:41.562Z,99604.00
2023-01-03T09:39:14.479Z,99613.00
2023-01-03T09:41:45.257Z,99608.00
2023-01-03T09:44:15.485Z,99609.00
2023-01-03T09:46:45.589Z,99612.00
2023-01-03T09:49:16.794Z,99609.00
2023-01-03T09:52:01.281Z,99611.00
2023-01-03T09:54:48.632Z,99601.00
2023-01-03T09:57:33.478Z,99608.00
2023-01-03T10:00:16.010Z,99599.00
2023-01-03T10:03:14.759Z,99605.00
2023-01-03T10:05:59.642Z,99607.00
2023-01-03T10:08:36.987Z,99603.00
2023-01-03T10:11:11.933Z,99602.00
2023-01-03T10:14:02.913Z,99608.00
2023-01-03T10:16:43.441Z,99607.00
2023-01-03T10:19:46.077Z,99597.00
2023-01-03T10:22:20.067Z,99601.00
2023-01-03T10:24:51.259Z,99607.00
2023-01-03T10:27:25.333Z,99611.00
2023-01-03T10:29:57.820Z,99609.00
2023-01-03T10:32:45.618Z,99607.00
2023-01-03T10:35:24.089Z,99604.00
2023-01-03T10:37:55.299Z,99602.00
2023-01-03T10:40:35.052Z,99592.00
2023-01-03T10:43:16.184Z,99598.00
2023-01-03T10:45:58.400Z,99587.00
2023-01-03T10:48:36.111Z,99590.00
2023-01-03T10:51:27.496Z,99588.00
2023-01-03T10:53:59.131Z,99595.00
2023-01-03T10:56:30.451Z,99599.00
2023-01-03T10:59:19.412Z,99589.00
2023-01-03T11:01:59.922Z,99600.00
2023-01-03T11:04:30.689Z,99595.00
2023-01-03T11:07:06.282Z,99597.00
2023-01-03T11:09:39.078Z,99588.00
2023-01-03T11:12:15.745Z,99584.00
2023-01-03T11:14:56.405Z,99579.00
2023-01-03T11:17:28.084Z,99579.00
2023-01-03T11:19:59.618Z,99583.00
2023-01-03T11:22:38.361Z,99580.00
2023-01-03T11:25:23.487Z,99578.00
2023-01-03T11:28:16.182Z,99575.00
2023-01-03T11:30:55.865Z,99573.00
2023-01-03T11:33:31.827Z,99574.00
2023-01-03T11:36:14.499Z,99573.00
2023-01-03T11:38:51.684Z,99580.00
2023-01-03T11:41:35.435Z,99581.00
2023-01-03T11:44:26.008Z,99577.00
2023-01-03T11:47:08.517Z,99580.00
2023-01-03T11:49:49.262Z,99577.00
2023-01-03T11:52:25.322Z,99573.00
2023-01-03T11:55:11.927Z,99577.00
2023-01-03T11:57:47.514Z,99576.00
2023-01-03T12:00:25.015Z,99578.00
2023-01-03T12:03:11.063Z,99570.00
2023-01-03T12:05:49.441Z,99581.00
2023-01-03T12:08:45.031Z,99568.00
2023-01-03T12:11:36.058Z,99568.00
2023-01-03T12:14:13.223Z,99581.00
2023-01-03T12:16:46.741Z,99578.00
2023-01-03T12:19:27.895Z,99575.00
2023-01-03T12:22:01.611Z,99583.00
2023-01-03T12:24:36.362Z,99576.00
2023-01-03T12:27:08.613Z,99570.00
2023-01-03T12:29:49.881Z,99570.00
2023-01-03T12:32:24.115Z,99572.00
2023-01-03T12:35:03.651Z,99575.00
2023-01-03T12:37:34.065Z,99577.00
2023-01-03T12:40:06.479Z,99574.00
2023-01-03T12:42:40.991Z,99567.00
2023-01-03T12:45:29.768Z,99569.00
2023-01-03T12:48:09.420Z,99571.00
2023-01-03T12:50:46.902Z,99564.00
2023-01-03T12:53:21.674Z,99561.00
2023-01-03T12:56:02.949Z,99557.00
2023-01-03T12:58:43.145Z,99554.00
2023-01-03T13:01:18.056Z,99560.00
2023-01-03T13:03:52.901Z,99542.00
2023-01-03T13:06:28.267Z,99548.00
2023-01-03T13:09:00.463Z,99543.00
2023-01-03T13:11:33.851Z,99549.00
2023-01-03T13:14:08.126Z,99550.00
2023-01-03T13:16:46.528Z,99553.00
2023-01-03T13:19:58.261Z,99555.00
2023-01-03T13:22:50.102Z,99556.00
2023-01-03T13:25:39.552Z,99552.00
2023-01-03T13:28:36.990Z,99543.00
2023-01-03T13:31:38.472Z,99540.00
2023-01-03T13:34:20.926Z,99536.00
2023-01-03T13:37:23.081Z,99542.00
2023-01-03T13:40:20.330Z,99544.00
2023-01-03T13:42:50.429Z,99543.00
2023-01-03T13:45:58.293Z,99536.00
2023-01-03T13:48:40.904Z,99534.00
2023-01-03T13:51:50.094Z,99539.00
2023-01-03T13:54:43.620Z,99542.00
2023-01-03T13:57:32.838Z,99551.00
2023-01-03T14:00:03.390Z,99545.00
2023-01-03T14:03:17.962Z,99542.00
2023-01-03T14:06:09.111Z,99548.00
2023-01-03T14:09:12.587Z,99543.00
2023-01-03T14:12:03.976Z,99538.00
2023-01-03T14:14:38.008Z,99541.00
2023-01-03T14:17:08.590Z,99551.00
2023-01-03T14:19:39.749Z,99550.00
2023-01-03T14:22:35.043Z,99551.00
2023-01-03T14:25:05.161Z,99549.00
2023-01-03T14:27:39.438Z,99555.00
2023-01-03T14:30:23.997Z,99561.00
2023-01-03T14:32:54.015Z,99566.00
2023-01-03T14:35:37.950Z,99561.00
2023-01-03T14:38:24.736Z,99565.00
2023-01-03T14:40:56.006Z,99560.00
2023-01-03T14:43:26.120Z,99571.00
2023-01-03T14:45:57.993Z,99564.00
2023-01-03T14:48:28.421Z,114104.00
2023-01-03T14:50:58.732Z,99580.00
2023-01-03T14:53:31.593Z,99584.00
2023-01-03T14:56:02.055Z,99581.00
2023-01-03T14:58:35.970Z,99584.00
2023-01-03T15:01:08.794Z,99591.00
2023-01-03T15:03:40.719Z,235282.00
2023-01-03T15:06:22.403Z,235282.00
2023-01-03T15:08:57.097Z,235282.00
2023-01-03T15:11:31.131Z,235282.00
2023-01-03T15:14:03.810Z,235282.00
2023-01-03T15:16:36.101Z,235282.00
2023-01-03T15:19:16.680Z,235282.00
2023-01-03T15:21:46.868Z,235282.00
2023-01-03T15:24:21.118Z,235282.00
2023-01-03T15:26:52.146Z,235282.00
2023-01-03T15:29:24.024Z,99632.00
2023-01-03T15:31:59.215Z,99629.00
2023-01-03T15:34:40.154Z,99628.00
2023-01-03T15:37:16.612Z,99619.00
2023-01-03T15:39:51.039Z,99629.00
2023-01-03T15:42:44.748Z,99620.00
2023-01-03T15:45:20.971Z,99627.00
2023-01-03T15:47:52.039Z,99627.00
2023-01-03T15:50:22.591Z,99637.00
2023-01-03T15:52:52.805Z,99641.00
2023-01-03T15:55:25.391Z,99643.00
2023-01-03T15:57:56.622Z,99649.00
2023-01-03T16:00:28.107Z,99646.00
2023-01-03T16:02:58.491Z,99643.00
2023-01-03T16:05:28.639Z,99649.00
2023-01-03T16:07:58.584Z,99658.00
2023-01-03T16:10:31.226Z,99647.00
2023-01-03T16:13:01.286Z,99642.00
2023-01-03T16:15:31.336Z,99645.00
2023-01-03T16:18:01.458Z,99645.00
2023-01-03T16:20:31.433Z,99654.00
2023-01-03T16:23:02.161Z,99651.00
2023-01-03T16:25:34.802Z,99650.00
2023-01-03T16:28:11.834Z,99664.00
2023-01-03T16:30:42.341Z,99665.00
2023-01-03T16:33:18.981Z,99667.00
2023-01-03T16:35:49.234Z,99681.00
2023-01-03T16:38:19.428Z,99675.00
2023-01-03T16:40:51.943Z,99679.00
2023-01-03T16:43:22.190Z,99675.00
2023-01-03T16:45:52.359Z,99681.00
2023-01-03T16:48:24.489Z,99683.00
2023-01-03T16:50:56.432Z,99680.00
2023-01-03T16:53:33.846Z,99682.00
2023-01-03T16:56:07.322Z,99682.00
2023-01-03T16:58:37.424Z,99687.00
2023-01-03T17:01:08.014Z,99680.00
2023-01-03T17:03:41.762Z,99681.00
2023-01-03T17:06:25.218Z,99686.00
2023-01-03T17:08:55.550Z,99684.00
2023-01-03T17:11:28.889Z,99678.00
2023-01-03T17:14:02.771Z,99695.00
2023-01-03T17:16:34.114Z,99691.00
2023-01-03T17:19:04.203Z,99685.00
2023-01-03T17:21:35.994Z,99682.00
2023-01-03T17:24:08.866Z,99687.00
2023-01-03T17:26:41.529Z,99676.00
2023-01-03T17:29:17.714Z,99671.00
2023-01-03T17:31:47.735Z,99680.00
2023-01-03T17:34:23.956Z,99682.00
2023-01-03T17:36:54.129Z,99675.00
2023-01-03T17:39:25.073Z,99697.00
2023-01-03T17:42:10.016Z,99698.00
2023-01-03T17:44:40.332Z,99677.00
2023-01-03T17:47:35.885Z,99690.00
2023-01-03T17:50:06.216Z,99694.00
2023-01-03T17:52:37.969Z,99692.00
2023-01-03T17:55:14.541Z,99693.00
2023-01-03T17:57:47.242Z,99703.00
2023-01-03T18:00:21.667Z,99700.00
2023-01-03T18:02:51.778Z,99698.00
2023-01-03T18:05:27.723Z,99689.00
2023-01-03T18:07:58.832Z,99699.00
2023-01-03T18:10:35.541Z,99698.00
2023-01-03T18:13:17.761Z,99707.00
2023-01-03T18:15:47.786Z,99707.00
2023-01-03T18:18:18.714Z,99711.00
2023-01-03T18:20:48.952Z,99704.00
2023-01-03T18:23:20.698Z,99706.00
2023-01-03T18:25:50.736Z,99712.00
2023-01-03T18:28:25.349Z,99709.00
2023-01-03T18:30:55.999Z,99718.00
2023-01-03T18:33:26.595Z,99709.00
2023-01-03T18:35:56.838Z,99713.00
2023-01-03T18:38:29.550Z,99711.00
2023-01-03T18:41:05.099Z,99720.00
2023-01-03T18:43:39.196Z,99703.00
2023-01-03T18:46:12.532Z,99722.00
2023-01-03T18:48:42.486Z,99721.00
2023-01-03T18:51:16.723Z,99703.00
2023-01-03T18:53:49.173Z,99700.00
2023-01-03T18:56:28.865Z,99702.00
2023-01-03T18:59:03.752Z,99706.00
2023-01-03T19:01:34.439Z,99695.00
2023-01-03T19:04:05.163Z,99701.00
2023-01-03T19:06:35.465Z,99704.00
2023-01-03T19:09:07.254Z,99704.00
2023-01-03T19:11:39.088Z,99701.00
2023-01-03T19:14:13.203Z,99709.00
2023-01-03T19:16:43.752Z,99706.00
2023-01-03T19:19:14.019Z,99711.00
2023-01-03T19:21:45.901Z,99720.00
2023-01-03T19:24:22.751Z,99713.00
2023-01-03T19:26:57.499Z,99716.00
2023-01-03T19:29:36.998Z,99713.00
2023-01-03T19:32:08.816Z,99720.00
2023-01-03T19:34:38.855Z,99719.00
2023-01-03T19:37:08.894Z,99723.00
2023-01-03T19:39:38.868Z,99729.00
2023-01-03T19:42:22.929Z,99724.00
2023-01-03T19:44:55.994Z,99727.00
2023-01-03T19:47:26.048Z,99720.00
2023-01-03T19:49:58.054Z,99718.00
2023-01-03T19:52:28.081Z,99731.00
2023-01-03T19:54:58.085Z,99719.00
2023-01-03T19:57:33.491Z,99715.00
2023-01-03T20:00:07.209Z,99718.00
2023-01-03T20:02:40.443Z,99710.00
2023-01-03T20:05:20.342Z,99725.00
2023-01-03T20:07:52.176Z,99719.00
2023-01-03T20:10:24.140Z,99703.00
2023-01-03T20:12:57.211Z,99718.00
2023-01-03T20:15:32.017Z,99714.00
2023-01-03T20:18:04.016Z,99724.00
2023-01-03T20:20:35.841Z,99723.00
2023-01-03T20:23:13.771Z,99714.00
2023-01-03T20:25:48.306Z,99716.00
2023-01-03T20:28:26.818Z,99716.00
2023-01-03T20:31:00.372Z,99707.00
2023-01-03T20:33:31.131Z,99711.00
2023-01-03T20:36:17.605Z,99705.00
2023-01-03T20:38:51.607Z,99712.00
2023-01-03T20:41:22.072Z,99709.00
2023-01-03T20:43:54.585Z,99710.00
2023-01-03T20:46:29.363Z,99717.00
2023-01-03T20:49:01.518Z,99710.00
2023-01-03T20:51:32.583Z,99715.00
2023-01-03T20:54:02.767Z,99705.00
2023-01-03T20:56:35.706Z,99708.00
2023-01-03T20:59:06.356Z,99708.00
2023-01-03T21:01:39.135Z,99703.00
2023-01-03T21:04:09.789Z,99699.00
2023-01-03T21:06:41.357Z,99717.00
2023-01-03T21:09:11.662Z,99691.00
2023-01-03T21:11:41.679Z,99699.00
2023-01-03T21:14:13.717Z,99706.00
2023-01-03T21:16:47.344Z,99703.00
2023-01-03T21:19:21.488Z,99707.00
2023-01-03T21:21:53.459Z,99706.00
2023-01-03T21:24:26.474Z,99686.00
2023-01-03T21:26:56.481Z,99702.00
2023-01-03T21:29:28.006Z,99697.00
2023-01-03T21:32:00.656Z,99684.00
2023-01-03T21:34:30.779Z,99680.00
2023-01-03T21:37:00.813Z,99685.00
2023-01-03T21:39:30.837Z,99683.00
2023-01-03T21:42:13.171Z,99687.00
2023-01-03T21:44:43.258Z,99688.00
2023-01-03T21:47:15.771Z,99701.00
2023-01-03T21:49:45.818Z,99696.00
2023-01-03T21:52:15.798Z,99689.00
2023-01-03T21:54:45.823Z,99688.00
2023-01-03T21:57:22.764Z,99694.00
2023-01-03T21:59:53.276Z,99685.00
2023-01-03T22:02:38.361Z,99690.00
2023-01-03T22:05:09.236Z,99702.00
2023-01-03T22:07:39.526Z,99706.00
2023-01-03T22:10:19.860Z,99716.00
2023-01-03T22:12:51.703Z,99717.00
2023-01-03T22:15:21.942Z,99725.00
2023-01-03T22:17:54.835Z,99723.00
2023-01-03T22:20:26.400Z,99721.00
2023-01-03T22:22:59.271Z,99724.00
2023-01-03T22:25:29.307Z,99721.00
2023-01-03T22:27:59.381Z,99714.00
2023-01-03T22:30:29.492Z,99725.00
2023-01-03T22:33:02.024Z,99728.00
2023-01-03T22:35:32.045Z,99722.00
2023-01-03T22:38:02.033Z,99729.00
2023-01-03T22:40:32.050Z,99716.00
2023-01-03T22:43:02.031Z,99718.00
2023-01-03T22:45:32.129Z,99713.00
2023-01-03T22:48:04.767Z,99707.00
2023-01-03T22:50:34.804Z,99709.00
2023-01-03T22:53:04.833Z,99702.00
2023-01-03T22:55:34.931Z,99703.00
2023-01-03T22:58:05.351Z,99711.00
2023-01-03T23:00:35.403Z,99704.00
2023-01-03T23:03:07.998Z,99702.00
2023-01-03T23:05:38.417Z,99692.00
2023-01-03T23:08:08.931Z,99693.00
2023-01-03T23:10:38.977Z,99686.00
2023-01-03T23:13:06.666Z,99686.00
2023-01-03T23:15:37.559Z,99702.00
2023-01-03T23:18:10.179Z,99694.00
2023-01-03T23:20:50.172Z,99696.00
2023-01-03T23:23:20.118Z,99696.00
2023-01-03T23:25:50.056Z,99697.00
2023-01-03T23:28:20.090Z,99694.00
2023-01-03T23:30:50.085Z,99701.00
2023-01-03T23:33:23.277Z,99698.00
2023-01-03T23:35:53.980Z,99694.00
2023-01-03T23:38:23.964Z,99689.00
2023-01-03T23:40:54.038Z,99700.00
2023-01-03T23:43:24.022Z,99688.00
2023-01-03T23:45:54.050Z,99689.00
2023-01-03T23:48:26.770Z,99699.00
2023-01-03T23:50:56.898Z,99685.00
2023-01-03T23:53:27.086Z,99685.00
2023-01-03T23:55:57.352Z,99681.00
2023-01-03T23:58:27.451Z,99688.00
